Mega Smeralda — ICIU — position and weather

sailwx.info

Track history (hours):
 
Tides and Currents Weather Stations Pressure Air Temp Water Temp Dewpoint Dewpoint Depression Visibility Wind Speed Wind Dir Waves Ship Positions

Mega Smeralda

Last reported at 2014-Dec-19 21:09 UTC. Time now 2014-Dec-20 00:08 UTC.
Position N 43°03' E 009°14'.

Length 171 m; draft 6.4 m.

Type: Passenger vessel. MMSI: 247228600.

Date/timePositionNaut miles runAvg speedWind from/ knotsBaromVisibWave heightAir tempDewpointWater temp
2014-Dec-19 21:09N 43°03' E 009°14'1216.8
2014-Dec-19 20:27N 43°01' E 009°30'120 5.4
2014-Dec-18 22:24N 42°57' E 006°46'38 5.6
2014-Dec-18 15:33N 43°07' E 005°56'0 0.0
2014-Dec-18 14:33N 43°07' E 005°56'0 0.0
2014-Dec-18 13:33N 43°07' E 005°56'0 0.0
2014-Dec-18 12:33N 43°07' E 005°56'0 0.0
2014-Dec-18 11:33N 43°07' E 005°56'0 0.0
2014-Dec-18 10:33N 43°07' E 005°56'0 0.0
2014-Dec-18 09:33N 43°07' E 005°56'0 0.0
2014-Dec-18 08:33N 43°07' E 005°56'0 0.0
2014-Dec-18 07:33N 43°07' E 005°56'0 0.0
2014-Dec-18 06:33N 43°07' E 005°56'7 7.2
2014-Dec-18 05:32N 43°01' E 006°01'1411.9
2014-Dec-18 04:20N 42°52' E 006°16'2913.8
2014-Dec-18 02:14N 42°38' E 006°51'36 1.3
2014-Dec-16 22:33N 42°57' E 006°09'1414.5
2014-Dec-16 21:33N 43°07' E 005°56'0 0.0
2014-Dec-16 20:33N 43°07' E 005°56'4 3.7
2014-Dec-16 19:34N 43°04' E 005°59'1817.9
2014-Dec-16 18:33N 42°57' E 006°21'2020.3
2014-Dec-16 17:33N 43°08' E 006°45'2020.4
2014-Dec-16 16:33N 43°24' E 007°03'2019.8
2014-Dec-16 15:33N 43°40' E 007°18'3 2.8
2014-Dec-16 14:33N 43°39' E 007°21'8119.6
2014-Dec-16 10:26N 43°09' E 009°04'1719.2
2014-Dec-16 09:33N 43°03' E 009°26'10510.5
2014-Dec-15 23:34N 42°57' E 007°03'1818.4
2014-Dec-15 22:34N 42°57' E 006°38'2018.0
2014-Dec-15 21:28N 42°57' E 006°11'1516.4
2014-Dec-15 20:34N 43°06' E 005°55'1 1.2
2014-Dec-15 19:31N 43°07' E 005°56'0 0.0
2014-Dec-15 18:31N 43°07' E 005°56'0 0.0
2014-Dec-15 17:34N 43°07' E 005°56'0 0.0
2014-Dec-15 16:34N 43°07' E 005°56'0 0.0
2014-Dec-15 15:33N 43°07' E 005°56'0 0.0
2014-Dec-15 14:33N 43°07' E 005°56'0 0.0
2014-Dec-15 13:33N 43°07' E 005°56'0 0.0
2014-Dec-15 12:30N 43°07' E 005°56'0 0.0
2014-Dec-15 11:33N 43°07' E 005°56'0 0.0
2014-Dec-15 10:33N 43°07' E 005°56'0 0.0
2014-Dec-15 09:33N 43°07' E 005°56'0 0.0
2014-Dec-15 08:33N 43°07' E 005°56'0 0.0
2014-Dec-15 07:33N 43°07' E 005°56'0 0.0
2014-Dec-15 06:33N 43°07' E 005°56'5 5.2
2014-Dec-15 05:33N 43°02' E 005°60'1412.0
2014-Dec-15 04:22N 42°53' E 006°15'1012.7
2014-Dec-15 03:33N 42°48' E 006°26'1812.9
2014-Dec-15 02:07N 42°38' E 006°47'1314.5
2014-Dec-15 01:13N 42°31' E 007°02'42 1.5
2014-Dec-13 21:34N 42°54' E 006°14'1313.2
2014-Dec-13 20:33N 43°02' E 005°60'6 5.6
2014-Dec-13 19:31N 43°07' E 005°56'0 0.0
2014-Dec-13 18:31N 43°07' E 005°56'0 0.0
2014-Dec-13 17:31N 43°07' E 005°56'0 0.0
2014-Dec-13 16:31N 43°07' E 005°56'0 0.0
2014-Dec-13 15:31N 43°07' E 005°56'0 0.0
2014-Dec-13 14:31N 43°07' E 005°56'0 0.0
2014-Dec-13 13:31N 43°07' E 005°56'0 0.0
2014-Dec-13 12:31N 43°07' E 005°56'0 0.0
2014-Dec-13 11:31N 43°07' E 005°56'0 0.0
2014-Dec-13 10:31N 43°07' E 005°56'0 0.0
2014-Dec-13 09:31N 43°07' E 005°56'0 0.0
2014-Dec-13 08:31N 43°07' E 005°56'0 0.0
2014-Dec-13 07:31N 43°07' E 005°56'0 0.0
2014-Dec-13 06:31N 43°07' E 005°56'5 5.6
2014-Dec-13 05:33N 43°02' E 005°60'1413.0
2014-Dec-13 04:28N 42°53' E 006°14'1313.7
2014-Dec-13 03:33N 42°47' E 006°29'1513.6
2014-Dec-13 02:25N 42°38' E 006°47'27 0.9
2014-Dec-11 21:33N 42°52' E 006°15'1515.2
2014-Dec-11 20:34N 43°02' E 005°59'6 5.4
2014-Dec-11 19:33N 43°07' E 005°56'0 0.0
2014-Dec-11 18:32N 43°07' E 005°56'0 0.0
2014-Dec-11 17:32N 43°07' E 005°56'0 0.0
2014-Dec-11 16:32N 43°07' E 005°56'0 0.0
2014-Dec-11 15:32N 43°07' E 005°56'0 0.0
2014-Dec-11 14:32N 43°07' E 005°56'0 0.0
2014-Dec-11 13:32N 43°07' E 005°56'0 0.0
2014-Dec-11 12:32N 43°07' E 005°56'0 0.0
2014-Dec-11 11:32N 43°07' E 005°56'0 0.0
2014-Dec-11 10:32N 43°07' E 005°56'0 0.0
2014-Dec-11 09:32N 43°07' E 005°56'0 0.0
2014-Dec-11 08:32N 43°07' E 005°56'0 0.0
2014-Dec-11 07:32N 43°07' E 005°56'0 0.0
2014-Dec-11 06:32N 43°07' E 005°56'5 5.3
2014-Dec-11 05:33N 43°03' E 006°00'1312.6
2014-Dec-11 04:33N 42°54' E 006°12'1313.3
2014-Dec-11 03:33N 42°47' E 006°28'1613.5
2014-Dec-11 02:20N 42°38' E 006°47'  
Track history (hours):
 
Tides and Currents Weather Stations Pressure Air Temp Water Temp Dewpoint Dewpoint Depression Visibility Wind Speed Wind Dir Waves Ship Positions

Mega Smeralda

Last reported at 2014-Dec-19 21:09 UTC. Time now 2014-Dec-20 00:08 UTC.
Position N 43°03' E 009°14'.

Length 171 m; draft 6.4 m.

Type: Passenger vessel. MMSI: 247228600.

Date/timePositionNaut miles runAvg speedWind from/ knotsBaromVisibWave heightAir tempDewpointWater temp
2014-Dec-19 21:09N 43°03' E 009°14'1216.8
2014-Dec-19 20:27N 43°01' E 009°30'120 5.4
2014-Dec-18 22:24N 42°57' E 006°46'38 5.6
2014-Dec-18 15:33N 43°07' E 005°56'0 0.0
2014-Dec-18 14:33N 43°07' E 005°56'0 0.0
2014-Dec-18 13:33N 43°07' E 005°56'0 0.0
2014-Dec-18 12:33N 43°07' E 005°56'0 0.0
2014-Dec-18 11:33N 43°07' E 005°56'0 0.0
2014-Dec-18 10:33N 43°07' E 005°56'0 0.0
2014-Dec-18 09:33N 43°07' E 005°56'0 0.0
2014-Dec-18 08:33N 43°07' E 005°56'0 0.0
2014-Dec-18 07:33N 43°07' E 005°56'0 0.0
2014-Dec-18 06:33N 43°07' E 005°56'7 7.2
2014-Dec-18 05:32N 43°01' E 006°01'1411.9
2014-Dec-18 04:20N 42°52' E 006°16'2913.8
2014-Dec-18 02:14N 42°38' E 006°51'36 1.3
2014-Dec-16 22:33N 42°57' E 006°09'1414.5
2014-Dec-16 21:33N 43°07' E 005°56'0 0.0
2014-Dec-16 20:33N 43°07' E 005°56'4 3.7
2014-Dec-16 19:34N 43°04' E 005°59'1817.9
2014-Dec-16 18:33N 42°57' E 006°21'2020.3
2014-Dec-16 17:33N 43°08' E 006°45'2020.4
2014-Dec-16 16:33N 43°24' E 007°03'2019.8
2014-Dec-16 15:33N 43°40' E 007°18'3 2.8
2014-Dec-16 14:33N 43°39' E 007°21'8119.6
2014-Dec-16 10:26N 43°09' E 009°04'1719.2
2014-Dec-16 09:33N 43°03' E 009°26'10510.5
2014-Dec-15 23:34N 42°57' E 007°03'1818.4
2014-Dec-15 22:34N 42°57' E 006°38'2018.0
2014-Dec-15 21:28N 42°57' E 006°11'1516.4
2014-Dec-15 20:34N 43°06' E 005°55'1 1.2
2014-Dec-15 19:31N 43°07' E 005°56'0 0.0
2014-Dec-15 18:31N 43°07' E 005°56'0 0.0
2014-Dec-15 17:34N 43°07' E 005°56'0 0.0
2014-Dec-15 16:34N 43°07' E 005°56'0 0.0
2014-Dec-15 15:33N 43°07' E 005°56'0 0.0
2014-Dec-15 14:33N 43°07' E 005°56'0 0.0
2014-Dec-15 13:33N 43°07' E 005°56'0 0.0
2014-Dec-15 12:30N 43°07' E 005°56'0 0.0
2014-Dec-15 11:33N 43°07' E 005°56'0 0.0
2014-Dec-15 10:33N 43°07' E 005°56'0 0.0
2014-Dec-15 09:33N 43°07' E 005°56'0 0.0
2014-Dec-15 08:33N 43°07' E 005°56'0 0.0
2014-Dec-15 07:33N 43°07' E 005°56'0 0.0
2014-Dec-15 06:33N 43°07' E 005°56'5 5.2
2014-Dec-15 05:33N 43°02' E 005°60'1412.0
2014-Dec-15 04:22N 42°53' E 006°15'1012.7
2014-Dec-15 03:33N 42°48' E 006°26'1812.9
2014-Dec-15 02:07N 42°38' E 006°47'1314.5
2014-Dec-15 01:13N 42°31' E 007°02'42 1.5
2014-Dec-13 21:34N 42°54' E 006°14'1313.2
2014-Dec-13 20:33N 43°02' E 005°60'6 5.6
2014-Dec-13 19:31N 43°07' E 005°56'0 0.0
2014-Dec-13 18:31N 43°07' E 005°56'0 0.0
2014-Dec-13 17:31N 43°07' E 005°56'0 0.0
2014-Dec-13 16:31N 43°07' E 005°56'0 0.0
2014-Dec-13 15:31N 43°07' E 005°56'0 0.0
2014-Dec-13 14:31N 43°07' E 005°56'0 0.0
2014-Dec-13 13:31N 43°07' E 005°56'0 0.0
2014-Dec-13 12:31N 43°07' E 005°56'0 0.0
2014-Dec-13 11:31N 43°07' E 005°56'0 0.0
2014-Dec-13 10:31N 43°07' E 005°56'0 0.0
2014-Dec-13 09:31N 43°07' E 005°56'0 0.0
2014-Dec-13 08:31N 43°07' E 005°56'0 0.0
2014-Dec-13 07:31N 43°07' E 005°56'0 0.0
2014-Dec-13 06:31N 43°07' E 005°56'5 5.6
2014-Dec-13 05:33N 43°02' E 005°60'1413.0
2014-Dec-13 04:28N 42°53' E 006°14'1313.7
2014-Dec-13 03:33N 42°47' E 006°29'1513.6
2014-Dec-13 02:25N 42°38' E 006°47'27 0.9
2014-Dec-11 21:33N 42°52' E 006°15'1515.2
2014-Dec-11 20:34N 43°02' E 005°59'6 5.4
2014-Dec-11 19:33N 43°07' E 005°56'0 0.0
2014-Dec-11 18:32N 43°07' E 005°56'0 0.0
2014-Dec-11 17:32N 43°07' E 005°56'0 0.0
2014-Dec-11 16:32N 43°07' E 005°56'0 0.0
2014-Dec-11 15:32N 43°07' E 005°56'0 0.0
2014-Dec-11 14:32N 43°07' E 005°56'0 0.0
2014-Dec-11 13:32N 43°07' E 005°56'0 0.0
2014-Dec-11 12:32N 43°07' E 005°56'0 0.0
2014-Dec-11 11:32N 43°07' E 005°56'0 0.0
2014-Dec-11 10:32N 43°07' E 005°56'0 0.0
2014-Dec-11 09:32N 43°07' E 005°56'0 0.0
2014-Dec-11 08:32N 43°07' E 005°56'0 0.0
2014-Dec-11 07:32N 43°07' E 005°56'0 0.0
2014-Dec-11 06:32N 43°07' E 005°56'5 5.3
2014-Dec-11 05:33N 43°03' E 006°00'1312.6
2014-Dec-11 04:33N 42°54' E 006°12'1313.3
2014-Dec-11 03:33N 42°47' E 006°28'1613.5
2014-Dec-11 02:20N 42°38' E 006°47'  

Dump ship's entire track history